sensor_id;sensor_type;location;lat;lon;timestamp;P1;durP1;ratioP1;P2;durP2;ratioP2
31782;SDS011;18351;47.560;9.708;2023-03-31T00:02:01;9.80;;;6.70;;
31782;SDS011;18351;47.560;9.708;2023-03-31T00:04:31;12.70;;;7.22;;
31782;SDS011;18351;47.560;9.708;2023-03-31T00:06:57;9.32;;;7.50;;
31782;SDS011;18351;47.560;9.708;2023-03-31T00:09:23;11.25;;;7.10;;
31782;SDS011;18351;47.560;9.708;2023-03-31T00:11:48;12.18;;;7.38;;
31782;SDS011;18351;47.560;9.708;2023-03-31T00:14:15;12.15;;;7.30;;
31782;SDS011;18351;47.560;9.708;2023-03-31T00:16:42;11.02;;;6.88;;
31782;SDS011;18351;47.560;9.708;2023-03-31T00:19:08;12.27;;;7.15;;
31782;SDS011;18351;47.560;9.708;2023-03-31T00:21:42;15.02;;;7.18;;
31782;SDS011;18351;47.560;9.708;2023-03-31T00:24:12;12.82;;;7.07;;
31782;SDS011;18351;47.560;9.708;2023-03-31T00:26:38;11.70;;;7.72;;
31782;SDS011;18351;47.560;9.708;2023-03-31T00:29:05;9.65;;;7.03;;
31782;SDS011;18351;47.560;9.708;2023-03-31T00:31:32;12.95;;;7.30;;
31782;SDS011;18351;47.560;9.708;2023-03-31T00:33:58;8.48;;;6.85;;
31782;SDS011;18351;47.560;9.708;2023-03-31T00:36:24;15.30;;;9.13;;
31782;SDS011;18351;47.560;9.708;2023-03-31T00:38:53;9.95;;;6.70;;
31782;SDS011;18351;47.560;9.708;2023-03-31T00:41:33;12.90;;;7.15;;
31782;SDS011;18351;47.560;9.708;2023-03-31T00:49:32;8.45;;;6.35;;
31782;SDS011;18351;47.560;9.708;2023-03-31T00:52:21;12.00;;;7.03;;
31782;SDS011;18351;47.560;9.708;2023-03-31T00:54:50;9.38;;;6.78;;
31782;SDS011;18351;47.560;9.708;2023-03-31T00:57:24;12.35;;;6.03;;
31782;SDS011;18351;47.560;9.708;2023-03-31T00:59:57;8.20;;;6.65;;
31782;SDS011;18351;47.560;9.708;2023-03-31T01:02:41;8.55;;;6.07;;
31782;SDS011;18351;47.560;9.708;2023-03-31T01:05:16;12.23;;;6.65;;
31782;SDS011;18351;47.560;9.708;2023-03-31T01:07:45;12.30;;;6.68;;
31782;SDS011;18351;47.560;9.708;2023-03-31T01:10:14;9.65;;;6.18;;
31782;SDS011;18351;47.560;9.708;2023-03-31T01:12:41;9.60;;;5.93;;
31782;SDS011;18351;47.560;9.708;2023-03-31T01:15:10;8.90;;;5.47;;
31782;SDS011;18351;47.560;9.708;2023-03-31T01:17:35;8.15;;;5.70;;
31782;SDS011;18351;47.560;9.708;2023-03-31T01:26:01;10.98;;;5.63;;
31782;SDS011;18351;47.560;9.708;2023-03-31T01:34:17;11.43;;;6.05;;
31782;SDS011;18351;47.560;9.708;2023-03-31T01:42:16;12.75;;;6.88;;
31782;SDS011;18351;47.560;9.708;2023-03-31T01:44:59;11.27;;;7.35;;
31782;SDS011;18351;47.560;9.708;2023-03-31T01:47:37;13.10;;;6.53;;
31782;SDS011;18351;47.560;9.708;2023-03-31T01:50:11;10.75;;;6.47;;
31782;SDS011;18351;47.560;9.708;2023-03-31T01:52:41;13.07;;;6.15;;
31782;SDS011;18351;47.560;9.708;2023-03-31T01:58:02;8.48;;;5.95;;
31782;SDS011;18351;47.560;9.708;2023-03-31T02:00:33;9.52;;;6.40;;
31782;SDS011;18351;47.560;9.708;2023-03-31T02:03:04;10.15;;;6.03;;
31782;SDS011;18351;47.560;9.708;2023-03-31T02:05:37;11.00;;;6.35;;
31782;SDS011;18351;47.560;9.708;2023-03-31T02:08:15;11.32;;;6.97;;
31782;SDS011;18351;47.560;9.708;2023-03-31T02:10:46;13.07;;;6.80;;
31782;SDS011;18351;47.560;9.708;2023-03-31T02:13:14;10.90;;;6.32;;
31782;SDS011;18351;47.560;9.708;2023-03-31T02:15:41;12.10;;;6.35;;
31782;SDS011;18351;47.560;9.708;2023-03-31T02:18:12;10.07;;;6.28;;
31782;SDS011;18351;47.560;9.708;2023-03-31T02:20:43;8.23;;;5.68;;
31782;SDS011;18351;47.560;9.708;2023-03-31T02:23:13;9.10;;;5.65;;
31782;SDS011;18351;47.560;9.708;2023-03-31T02:25:44;9.07;;;5.88;;
31782;SDS011;18351;47.560;9.708;2023-03-31T02:28:20;9.88;;;6.43;;
31782;SDS011;18351;47.560;9.708;2023-03-31T02:30:58;7.43;;;5.40;;
31782;SDS011;18351;47.560;9.708;2023-03-31T02:33:54;8.70;;;5.15;;
31782;SDS011;18351;47.560;9.708;2023-03-31T02:36:20;8.20;;;6.00;;
31782;SDS011;18351;47.560;9.708;2023-03-31T02:38:48;10.32;;;5.65;;
31782;SDS011;18351;47.560;9.708;2023-03-31T02:41:30;8.13;;;5.40;;
31782;SDS011;18351;47.560;9.708;2023-03-31T02:43:56;7.05;;;5.13;;
31782;SDS011;18351;47.560;9.708;2023-03-31T02:46:22;10.55;;;5.45;;
31782;SDS011;18351;47.560;9.708;2023-03-31T02:48:49;7.85;;;5.55;;
31782;SDS011;18351;47.560;9.708;2023-03-31T02:51:35;9.07;;;5.28;;
31782;SDS011;18351;47.560;9.708;2023-03-31T02:57:06;6.85;;;4.43;;
31782;SDS011;18351;47.560;9.708;2023-03-31T03:03:13;8.57;;;4.93;;
31782;SDS011;18351;47.560;9.708;2023-03-31T03:06:17;7.47;;;5.50;;
31782;SDS011;18351;47.560;9.708;2023-03-31T03:11:26;8.20;;;4.93;;
31782;SDS011;18351;47.560;9.708;2023-03-31T03:14:15;11.30;;;4.88;;
31782;SDS011;18351;47.560;9.708;2023-03-31T03:16:47;7.53;;;5.05;;
31782;SDS011;18351;47.560;9.708;2023-03-31T03:19:18;6.18;;;5.15;;
31782;SDS011;18351;47.560;9.708;2023-03-31T03:21:46;9.98;;;5.05;;
31782;SDS011;18351;47.560;9.708;2023-03-31T03:24:13;10.10;;;4.82;;
31782;SDS011;18351;47.560;9.708;2023-03-31T03:26:40;9.25;;;4.78;;
31782;SDS011;18351;47.560;9.708;2023-03-31T03:29:06;6.38;;;5.00;;
31782;SDS011;18351;47.560;9.708;2023-03-31T03:31:32;7.03;;;4.68;;
31782;SDS011;18351;47.560;9.708;2023-03-31T03:33:58;13.55;;;5.25;;
31782;SDS011;18351;47.560;9.708;2023-03-31T03:36:24;6.35;;;4.72;;
31782;SDS011;18351;47.560;9.708;2023-03-31T03:38:50;8.98;;;4.93;;
31782;SDS011;18351;47.560;9.708;2023-03-31T03:41:16;6.15;;;4.43;;
31782;SDS011;18351;47.560;9.708;2023-03-31T03:43:41;8.27;;;4.97;;
31782;SDS011;18351;47.560;9.708;2023-03-31T03:46:07;9.43;;;4.68;;
31782;SDS011;18351;47.560;9.708;2023-03-31T03:48:32;6.38;;;4.50;;
31782;SDS011;18351;47.560;9.708;2023-03-31T03:50:59;5.57;;;4.60;;
31782;SDS011;18351;47.560;9.708;2023-03-31T03:53:25;9.98;;;5.60;;
31782;SDS011;18351;47.560;9.708;2023-03-31T03:55:50;7.47;;;5.18;;
31782;SDS011;18351;47.560;9.708;2023-03-31T03:58:16;7.53;;;5.20;;
31782;SDS011;18351;47.560;9.708;2023-03-31T04:00:43;7.75;;;5.53;;
31782;SDS011;18351;47.560;9.708;2023-03-31T04:03:10;7.35;;;5.40;;
31782;SDS011;18351;47.560;9.708;2023-03-31T04:05:36;10.70;;;6.60;;
31782;SDS011;18351;47.560;9.708;2023-03-31T04:08:01;13.30;;;6.35;;
31782;SDS011;18351;47.560;9.708;2023-03-31T04:10:28;10.00;;;6.03;;
31782;SDS011;18351;47.560;9.708;2023-03-31T04:12:54;8.07;;;5.90;;
31782;SDS011;18351;47.560;9.708;2023-03-31T04:15:19;11.32;;;6.18;;
31782;SDS011;18351;47.560;9.708;2023-03-31T04:17:45;12.20;;;5.97;;
31782;SDS011;18351;47.560;9.708;2023-03-31T04:20:14;8.93;;;5.90;;
31782;SDS011;18351;47.560;9.708;2023-03-31T04:22:41;10.30;;;6.25;;
31782;SDS011;18351;47.560;9.708;2023-03-31T04:25:07;12.75;;;6.65;;
31782;SDS011;18351;47.560;9.708;2023-03-31T04:27:48;12.65;;;6.43;;
31782;SDS011;18351;47.560;9.708;2023-03-31T04:30:18;8.30;;;6.60;;
31782;SDS011;18351;47.560;9.708;2023-03-31T04:32:49;10.48;;;6.60;;
31782;SDS011;18351;47.560;9.708;2023-03-31T04:35:17;11.65;;;6.68;;
31782;SDS011;18351;47.560;9.708;2023-03-31T04:37:45;11.88;;;7.28;;
31782;SDS011;18351;47.560;9.708;2023-03-31T04:40:11;11.82;;;6.90;;
31782;SDS011;18351;47.560;9.708;2023-03-31T04:42:37;11.75;;;7.88;;
31782;SDS011;18351;47.560;9.708;2023-03-31T04:45:03;13.95;;;7.22;;
31782;SDS011;18351;47.560;9.708;2023-03-31T04:47:29;16.40;;;8.20;;
31782;SDS011;18351;47.560;9.708;2023-03-31T04:49:54;13.20;;;8.10;;
31782;SDS011;18351;47.560;9.708;2023-03-31T04:52:20;13.20;;;9.00;;
31782;SDS011;18351;47.560;9.708;2023-03-31T04:54:46;11.02;;;8.23;;
31782;SDS011;18351;47.560;9.708;2023-03-31T04:57:11;13.20;;;7.93;;
31782;SDS011;18351;47.560;9.708;2023-03-31T04:59:37;12.98;;;8.20;;
31782;SDS011;18351;47.560;9.708;2023-03-31T05:02:02;12.85;;;7.70;;
31782;SDS011;18351;47.560;9.708;2023-03-31T05:04:28;12.88;;;8.15;;
31782;SDS011;18351;47.560;9.708;2023-03-31T05:06:53;12.85;;;8.15;;
31782;SDS011;18351;47.560;9.708;2023-03-31T05:09:19;11.05;;;8.20;;
31782;SDS011;18351;47.560;9.708;2023-03-31T05:11:45;12.98;;;7.78;;
31782;SDS011;18351;47.560;9.708;2023-03-31T05:14:10;11.60;;;8.00;;
31782;SDS011;18351;47.560;9.708;2023-03-31T05:16:36;18.77;;;8.57;;
31782;SDS011;18351;47.560;9.708;2023-03-31T05:19:01;12.50;;;8.18;;
31782;SDS011;18351;47.560;9.708;2023-03-31T05:21:27;15.40;;;8.32;;
31782;SDS011;18351;47.560;9.708;2023-03-31T05:23:54;21.52;;;8.75;;
31782;SDS011;18351;47.560;9.708;2023-03-31T05:26:21;12.02;;;8.45;;
31782;SDS011;18351;47.560;9.708;2023-03-31T05:28:49;12.43;;;8.23;;
31782;SDS011;18351;47.560;9.708;2023-03-31T05:31:15;13.70;;;7.80;;
31782;SDS011;18351;47.560;9.708;2023-03-31T05:33:42;10.90;;;7.13;;
31782;SDS011;18351;47.560;9.708;2023-03-31T05:36:08;11.75;;;7.90;;
31782;SDS011;18351;47.560;9.708;2023-03-31T05:38:39;14.15;;;7.57;;
31782;SDS011;18351;47.560;9.708;2023-03-31T05:41:05;12.38;;;7.53;;
31782;SDS011;18351;47.560;9.708;2023-03-31T05:43:33;11.38;;;6.82;;
31782;SDS011;18351;47.560;9.708;2023-03-31T05:45:59;12.07;;;7.15;;
31782;SDS011;18351;47.560;9.708;2023-03-31T05:48:25;10.90;;;6.80;;
31782;SDS011;18351;47.560;9.708;2023-03-31T05:50:50;10.00;;;6.90;;
31782;SDS011;18351;47.560;9.708;2023-03-31T05:53:19;9.00;;;6.40;;
31782;SDS011;18351;47.560;9.708;2023-03-31T05:55:45;15.13;;;6.90;;
31782;SDS011;18351;47.560;9.708;2023-03-31T05:58:11;13.73;;;6.47;;
31782;SDS011;18351;47.560;9.708;2023-03-31T06:00:36;13.00;;;6.38;;
31782;SDS011;18351;47.560;9.708;2023-03-31T06:03:02;12.43;;;6.35;;
31782;SDS011;18351;47.560;9.708;2023-03-31T06:05:27;12.15;;;7.22;;
31782;SDS011;18351;47.560;9.708;2023-03-31T06:07:55;13.07;;;6.88;;
31782;SDS011;18351;47.560;9.708;2023-03-31T06:10:20;8.95;;;5.70;;
31782;SDS011;18351;47.560;9.708;2023-03-31T06:12:46;11.52;;;6.45;;
31782;SDS011;18351;47.560;9.708;2023-03-31T06:15:11;9.70;;;6.53;;
31782;SDS011;18351;47.560;9.708;2023-03-31T06:17:37;10.40;;;6.85;;
31782;SDS011;18351;47.560;9.708;2023-03-31T06:20:03;13.27;;;7.13;;
31782;SDS011;18351;47.560;9.708;2023-03-31T06:22:30;11.43;;;6.57;;
31782;SDS011;18351;47.560;9.708;2023-03-31T06:24:56;15.40;;;9.32;;
31782;SDS011;18351;47.560;9.708;2023-03-31T06:27:21;12.93;;;7.13;;
31782;SDS011;18351;47.560;9.708;2023-03-31T06:29:47;11.30;;;5.78;;
31782;SDS011;18351;47.560;9.708;2023-03-31T06:32:14;10.95;;;7.68;;
31782;SDS011;18351;47.560;9.708;2023-03-31T06:34:40;9.02;;;5.63;;
31782;SDS011;18351;47.560;9.708;2023-03-31T06:37:05;15.25;;;6.45;;
31782;SDS011;18351;47.560;9.708;2023-03-31T06:39:31;13.07;;;6.13;;
31782;SDS011;18351;47.560;9.708;2023-03-31T06:41:56;10.55;;;6.15;;
31782;SDS011;18351;47.560;9.708;2023-03-31T06:44:22;16.02;;;6.80;;
31782;SDS011;18351;47.560;9.708;2023-03-31T06:46:48;7.25;;;5.57;;
31782;SDS011;18351;47.560;9.708;2023-03-31T06:49:14;12.95;;;5.35;;
31782;SDS011;18351;47.560;9.708;2023-03-31T06:51:40;7.75;;;5.10;;
31782;SDS011;18351;47.560;9.708;2023-03-31T06:54:05;9.23;;;5.63;;
31782;SDS011;18351;47.560;9.708;2023-03-31T06:56:31;8.95;;;5.78;;
31782;SDS011;18351;47.560;9.708;2023-03-31T06:58:57;11.30;;;5.50;;
31782;SDS011;18351;47.560;9.708;2023-03-31T07:01:22;10.38;;;5.43;;
31782;SDS011;18351;47.560;9.708;2023-03-31T07:03:48;9.13;;;6.22;;
31782;SDS011;18351;47.560;9.708;2023-03-31T07:06:13;9.60;;;6.68;;
31782;SDS011;18351;47.560;9.708;2023-03-31T07:08:39;6.97;;;5.50;;
31782;SDS011;18351;47.560;9.708;2023-03-31T07:11:05;9.85;;;6.07;;
31782;SDS011;18351;47.560;9.708;2023-03-31T07:13:30;7.05;;;5.18;;
31782;SDS011;18351;47.560;9.708;2023-03-31T07:15:56;11.35;;;4.95;;
31782;SDS011;18351;47.560;9.708;2023-03-31T07:18:22;9.10;;;4.55;;
31782;SDS011;18351;47.560;9.708;2023-03-31T07:23:21;10.60;;;5.57;;
31782;SDS011;18351;47.560;9.708;2023-03-31T07:25:47;8.05;;;4.70;;
31782;SDS011;18351;47.560;9.708;2023-03-31T07:28:13;11.15;;;5.00;;
31782;SDS011;18351;47.560;9.708;2023-03-31T07:30:39;5.78;;;4.57;;
31782;SDS011;18351;47.560;9.708;2023-03-31T07:33:05;7.15;;;4.97;;
31782;SDS011;18351;47.560;9.708;2023-03-31T07:35:31;6.93;;;4.82;;
31782;SDS011;18351;47.560;9.708;2023-03-31T07:37:57;8.98;;;4.57;;
31782;SDS011;18351;47.560;9.708;2023-03-31T07:40:24;8.40;;;4.63;;
31782;SDS011;18351;47.560;9.708;2023-03-31T07:42:51;10.43;;;4.40;;
31782;SDS011;18351;47.560;9.708;2023-03-31T07:45:21;9.75;;;4.53;;
31782;SDS011;18351;47.560;9.708;2023-03-31T07:47:48;11.70;;;4.68;;
31782;SDS011;18351;47.560;9.708;2023-03-31T07:50:14;10.50;;;4.63;;
31782;SDS011;18351;47.560;9.708;2023-03-31T07:52:40;7.70;;;4.45;;
31782;SDS011;18351;47.560;9.708;2023-03-31T07:55:06;11.63;;;6.18;;
31782;SDS011;18351;47.560;9.708;2023-03-31T07:57:33;9.38;;;6.10;;
31782;SDS011;18351;47.560;9.708;2023-03-31T08:00:00;8.50;;;6.25;;
31782;SDS011;18351;47.560;9.708;2023-03-31T08:02:30;13.70;;;7.40;;
31782;SDS011;18351;47.560;9.708;2023-03-31T08:04:56;15.48;;;7.20;;
31782;SDS011;18351;47.560;9.708;2023-03-31T08:07:21;11.55;;;6.55;;
31782;SDS011;18351;47.560;9.708;2023-03-31T08:09:47;9.73;;;7.85;;
31782;SDS011;18351;47.560;9.708;2023-03-31T08:12:13;10.25;;;6.88;;
31782;SDS011;18351;47.560;9.708;2023-03-31T08:14:39;14.52;;;8.13;;
31782;SDS011;18351;47.560;9.708;2023-03-31T08:17:05;13.10;;;7.70;;
31782;SDS011;18351;47.560;9.708;2023-03-31T08:19:31;13.65;;;8.55;;
31782;SDS011;18351;47.560;9.708;2023-03-31T08:21:57;10.93;;;7.20;;
31782;SDS011;18351;47.560;9.708;2023-03-31T08:24:22;28.70;;;10.00;;
31782;SDS011;18351;47.560;9.708;2023-03-31T08:26:48;14.02;;;7.47;;
31782;SDS011;18351;47.560;9.708;2023-03-31T08:29:13;16.38;;;6.57;;
31782;SDS011;18351;47.560;9.708;2023-03-31T08:31:39;10.18;;;6.43;;
31782;SDS011;18351;47.560;9.708;2023-03-31T08:34:05;11.82;;;7.22;;
31782;SDS011;18351;47.560;9.708;2023-03-31T08:36:30;11.27;;;6.63;;
31782;SDS011;18351;47.560;9.708;2023-03-31T08:38:57;11.70;;;6.40;;
31782;SDS011;18351;47.560;9.708;2023-03-31T08:43:58;11.07;;;6.90;;
31782;SDS011;18351;47.560;9.708;2023-03-31T08:46:26;9.13;;;5.93;;
31782;SDS011;18351;47.560;9.708;2023-03-31T08:48:57;12.65;;;6.72;;
31782;SDS011;18351;47.560;9.708;2023-03-31T08:51:29;14.00;;;6.57;;
31782;SDS011;18351;47.560;9.708;2023-03-31T08:54:11;13.00;;;7.35;;
31782;SDS011;18351;47.560;9.708;2023-03-31T08:57:02;16.42;;;6.50;;
31782;SDS011;18351;47.560;9.708;2023-03-31T08:59:35;13.05;;;7.28;;
31782;SDS011;18351;47.560;9.708;2023-03-31T09:10:55;9.10;;;6.30;;
31782;SDS011;18351;47.560;9.708;2023-03-31T09:16:14;13.13;;;5.22;;
31782;SDS011;18351;47.560;9.708;2023-03-31T09:18:44;6.13;;;4.55;;
31782;SDS011;18351;47.560;9.708;2023-03-31T09:23:58;12.30;;;4.95;;
31782;SDS011;18351;47.560;9.708;2023-03-31T09:29:14;7.57;;;4.70;;
31782;SDS011;18351;47.560;9.708;2023-03-31T09:31:43;9.27;;;5.40;;
31782;SDS011;18351;47.560;9.708;2023-03-31T09:34:15;8.27;;;4.55;;
31782;SDS011;18351;47.560;9.708;2023-03-31T09:36:47;7.10;;;4.13;;
31782;SDS011;18351;47.560;9.708;2023-03-31T09:39:13;15.85;;;4.68;;
31782;SDS011;18351;47.560;9.708;2023-03-31T09:41:41;10.63;;;4.80;;
31782;SDS011;18351;47.560;9.708;2023-03-31T09:44:16;5.50;;;4.35;;
31782;SDS011;18351;47.560;9.708;2023-03-31T09:47:04;7.03;;;4.43;;
31782;SDS011;18351;47.560;9.708;2023-03-31T09:49:34;8.88;;;4.65;;
31782;SDS011;18351;47.560;9.708;2023-03-31T09:52:05;11.68;;;4.70;;
31782;SDS011;18351;47.560;9.708;2023-03-31T09:54:39;8.18;;;4.53;;
31782;SDS011;18351;47.560;9.708;2023-03-31T09:57:23;8.18;;;4.20;;
31782;SDS011;18351;47.560;9.708;2023-03-31T10:00:00;9.30;;;4.22;;
31782;SDS011;18351;47.560;9.708;2023-03-31T10:04:57;7.43;;;4.38;;
31782;SDS011;18351;47.560;9.708;2023-03-31T10:07:23;8.20;;;4.32;;
31782;SDS011;18351;47.560;9.708;2023-03-31T10:09:50;8.68;;;4.85;;
31782;SDS011;18351;47.560;9.708;2023-03-31T10:12:19;13.13;;;4.43;;
31782;SDS011;18351;47.560;9.708;2023-03-31T10:14:50;9.77;;;4.88;;
31782;SDS011;18351;47.560;9.708;2023-03-31T10:17:21;13.35;;;4.53;;
31782;SDS011;18351;47.560;9.708;2023-03-31T10:19:57;13.32;;;5.28;;
31782;SDS011;18351;47.560;9.708;2023-03-31T10:22:43;9.18;;;6.15;;
31782;SDS011;18351;47.560;9.708;2023-03-31T10:25:14;14.27;;;5.97;;
31782;SDS011;18351;47.560;9.708;2023-03-31T10:27:52;9.05;;;5.13;;
31782;SDS011;18351;47.560;9.708;2023-03-31T10:30:20;9.68;;;5.07;;
31782;SDS011;18351;47.560;9.708;2023-03-31T10:32:52;12.85;;;5.60;;
31782;SDS011;18351;47.560;9.708;2023-03-31T10:35:31;9.38;;;4.63;;
31782;SDS011;18351;47.560;9.708;2023-03-31T10:38:00;8.57;;;4.93;;
31782;SDS011;18351;47.560;9.708;2023-03-31T10:40:30;9.25;;;5.40;;
31782;SDS011;18351;47.560;9.708;2023-03-31T10:45:49;6.35;;;4.38;;
31782;SDS011;18351;47.560;9.708;2023-03-31T10:48:18;6.85;;;4.07;;
31782;SDS011;18351;47.560;9.708;2023-03-31T10:50:58;7.50;;;3.75;;
31782;SDS011;18351;47.560;9.708;2023-03-31T10:53:28;8.13;;;3.73;;
31782;SDS011;18351;47.560;9.708;2023-03-31T11:01:27;8.70;;;4.68;;
31782;SDS011;18351;47.560;9.708;2023-03-31T11:20:54;9.05;;;3.65;;
31782;SDS011;18351;47.560;9.708;2023-03-31T11:34:40;6.32;;;2.50;;
31782;SDS011;18351;47.560;9.708;2023-03-31T11:42:54;7.00;;;3.70;;
31782;SDS011;18351;47.560;9.708;2023-03-31T11:45:33;7.63;;;3.08;;
31782;SDS011;18351;47.560;9.708;2023-03-31T11:48:04;7.65;;;3.75;;
31782;SDS011;18351;47.560;9.708;2023-03-31T11:50:36;7.40;;;2.97;;
31782;SDS011;18351;47.560;9.708;2023-03-31T11:53:23;3.90;;;2.05;;
31782;SDS011;18351;47.560;9.708;2023-03-31T11:55:53;7.95;;;2.03;;
31782;SDS011;18351;47.560;9.708;2023-03-31T12:01:13;7.57;;;2.63;;
31782;SDS011;18351;47.560;9.708;2023-03-31T12:06:22;5.65;;;3.00;;
31782;SDS011;18351;47.560;9.708;2023-03-31T12:09:00;10.70;;;3.00;;
31782;SDS011;18351;47.560;9.708;2023-03-31T12:14:16;17.50;;;7.95;;
31782;SDS011;18351;47.560;9.708;2023-03-31T12:16:53;7.57;;;3.92;;
31782;SDS011;18351;47.560;9.708;2023-03-31T12:19:27;10.43;;;4.15;;
31782;SDS011;18351;47.560;9.708;2023-03-31T12:22:02;7.22;;;3.60;;
31782;SDS011;18351;47.560;9.708;2023-03-31T12:24:36;9.27;;;3.63;;
31782;SDS011;18351;47.560;9.708;2023-03-31T12:32:49;7.07;;;2.97;;
31782;SDS011;18351;47.560;9.708;2023-03-31T12:35:21;7.65;;;3.45;;
31782;SDS011;18351;47.560;9.708;2023-03-31T12:48:51;10.18;;;3.53;;
31782;SDS011;18351;47.560;9.708;2023-03-31T13:02:15;10.23;;;4.13;;
31782;SDS011;18351;47.560;9.708;2023-03-31T13:04:45;8.45;;;4.35;;
31782;SDS011;18351;47.560;9.708;2023-03-31T13:09:55;12.13;;;5.07;;
31782;SDS011;18351;47.560;9.708;2023-03-31T13:12:22;11.98;;;5.20;;
31782;SDS011;18351;47.560;9.708;2023-03-31T13:14:51;12.25;;;4.60;;
31782;SDS011;18351;47.560;9.708;2023-03-31T13:19:55;14.25;;;4.32;;
31782;SDS011;18351;47.560;9.708;2023-03-31T13:22:40;7.47;;;2.20;;
31782;SDS011;18351;47.560;9.708;2023-03-31T13:25:25;4.95;;;2.30;;
31782;SDS011;18351;47.560;9.708;2023-03-31T13:27:53;8.27;;;2.30;;
31782;SDS011;18351;47.560;9.708;2023-03-31T13:30:43;5.68;;;2.58;;
31782;SDS011;18351;47.560;9.708;2023-03-31T13:33:12;5.30;;;2.47;;
31782;SDS011;18351;47.560;9.708;2023-03-31T13:35:40;3.33;;;1.85;;
31782;SDS011;18351;47.560;9.708;2023-03-31T13:43:52;2.90;;;1.60;;
31782;SDS011;18351;47.560;9.708;2023-03-31T14:06:18;3.65;;;1.88;;
31782;SDS011;18351;47.560;9.708;2023-03-31T14:08:52;2.08;;;1.70;;
31782;SDS011;18351;47.560;9.708;2023-03-31T14:14:00;3.30;;;1.77;;
31782;SDS011;18351;47.560;9.708;2023-03-31T14:16:39;2.22;;;1.52;;
31782;SDS011;18351;47.560;9.708;2023-03-31T14:22:02;4.50;;;1.73;;
31782;SDS011;18351;47.560;9.708;2023-03-31T14:33:18;2.75;;;1.70;;
31782;SDS011;18351;47.560;9.708;2023-03-31T14:41:17;4.38;;;1.95;;
31782;SDS011;18351;47.560;9.708;2023-03-31T14:43:48;3.85;;;2.10;;
31782;SDS011;18351;47.560;9.708;2023-03-31T14:46:20;4.28;;;1.70;;
31782;SDS011;18351;47.560;9.708;2023-03-31T14:48:46;6.07;;;2.08;;
31782;SDS011;18351;47.560;9.708;2023-03-31T14:51:14;6.65;;;2.10;;
31782;SDS011;18351;47.560;9.708;2023-03-31T14:53:41;4.35;;;2.10;;
31782;SDS011;18351;47.560;9.708;2023-03-31T14:56:13;5.03;;;1.77;;
31782;SDS011;18351;47.560;9.708;2023-03-31T14:58:46;5.68;;;1.73;;
31782;SDS011;18351;47.560;9.708;2023-03-31T15:01:16;1.83;;;1.20;;
31782;SDS011;18351;47.560;9.708;2023-03-31T15:03:47;5.43;;;1.20;;
31782;SDS011;18351;47.560;9.708;2023-03-31T15:06:14;4.35;;;1.15;;
31782;SDS011;18351;47.560;9.708;2023-03-31T15:08:40;2.00;;;0.90;;
31782;SDS011;18351;47.560;9.708;2023-03-31T15:11:11;0.90;;;0.80;;
31782;SDS011;18351;47.560;9.708;2023-03-31T15:13:44;1.52;;;1.10;;
31782;SDS011;18351;47.560;9.708;2023-03-31T15:16:18;1.73;;;1.15;;
31782;SDS011;18351;47.560;9.708;2023-03-31T15:18:44;1.63;;;0.95;;
31782;SDS011;18351;47.560;9.708;2023-03-31T15:21:18;1.50;;;1.13;;
31782;SDS011;18351;47.560;9.708;2023-03-31T15:23:45;3.15;;;1.33;;
31782;SDS011;18351;47.560;9.708;2023-03-31T15:26:11;2.03;;;1.10;;
31782;SDS011;18351;47.560;9.708;2023-03-31T15:28:45;2.15;;;0.98;;
31782;SDS011;18351;47.560;9.708;2023-03-31T15:31:16;2.92;;;1.30;;
31782;SDS011;18351;47.560;9.708;2023-03-31T15:33:42;2.05;;;0.98;;
31782;SDS011;18351;47.560;9.708;2023-03-31T15:36:09;1.27;;;0.80;;
31782;SDS011;18351;47.560;9.708;2023-03-31T15:38:36;1.45;;;0.90;;
31782;SDS011;18351;47.560;9.708;2023-03-31T15:41:01;1.20;;;1.10;;
31782;SDS011;18351;47.560;9.708;2023-03-31T15:46:00;3.17;;;1.73;;
31782;SDS011;18351;47.560;9.708;2023-03-31T15:48:37;3.17;;;1.27;;
31782;SDS011;18351;47.560;9.708;2023-03-31T15:53:52;3.75;;;1.10;;
31782;SDS011;18351;47.560;9.708;2023-03-31T15:56:29;3.03;;;1.30;;
31782;SDS011;18351;47.560;9.708;2023-03-31T15:58:58;2.28;;;1.17;;
31782;SDS011;18351;47.560;9.708;2023-03-31T16:01:29;2.88;;;1.42;;
31782;SDS011;18351;47.560;9.708;2023-03-31T16:04:06;3.80;;;1.50;;
31782;SDS011;18351;47.560;9.708;2023-03-31T16:06:39;5.70;;;1.50;;
31782;SDS011;18351;47.560;9.708;2023-03-31T16:15:06;3.80;;;1.60;;
31782;SDS011;18351;47.560;9.708;2023-03-31T16:20:02;5.65;;;2.47;;
31782;SDS011;18351;47.560;9.708;2023-03-31T16:22:42;2.83;;;1.50;;
31782;SDS011;18351;47.560;9.708;2023-03-31T16:25:11;2.13;;;1.58;;
31782;SDS011;18351;47.560;9.708;2023-03-31T16:27:40;4.70;;;1.30;;
31782;SDS011;18351;47.560;9.708;2023-03-31T16:30:12;5.97;;;2.72;;
31782;SDS011;18351;47.560;9.708;2023-03-31T16:32:59;2.38;;;1.67;;
31782;SDS011;18351;47.560;9.708;2023-03-31T16:35:31;4.25;;;2.55;;
31782;SDS011;18351;47.560;9.708;2023-03-31T16:38:02;3.20;;;1.73;;
31782;SDS011;18351;47.560;9.708;2023-03-31T16:40:38;3.83;;;2.00;;
31782;SDS011;18351;47.560;9.708;2023-03-31T16:43:09;6.13;;;2.65;;
31782;SDS011;18351;47.560;9.708;2023-03-31T16:45:35;7.90;;;2.65;;
31782;SDS011;18351;47.560;9.708;2023-03-31T16:48:01;4.90;;;1.25;;
31782;SDS011;18351;47.560;9.708;2023-03-31T16:50:27;7.57;;;3.05;;
31782;SDS011;18351;47.560;9.708;2023-03-31T16:52:53;3.10;;;1.27;;
31782;SDS011;18351;47.560;9.708;2023-03-31T16:55:18;1.65;;;1.00;;
31782;SDS011;18351;47.560;9.708;2023-03-31T16:57:44;3.35;;;1.40;;
31782;SDS011;18351;47.560;9.708;2023-03-31T17:00:10;2.50;;;1.27;;
31782;SDS011;18351;47.560;9.708;2023-03-31T17:02:36;1.90;;;1.50;;
31782;SDS011;18351;47.560;9.708;2023-03-31T17:05:02;4.35;;;2.10;;
31782;SDS011;18351;47.560;9.708;2023-03-31T17:07:28;6.50;;;1.73;;
31782;SDS011;18351;47.560;9.708;2023-03-31T17:09:54;4.40;;;1.40;;
31782;SDS011;18351;47.560;9.708;2023-03-31T17:12:19;1.80;;;1.48;;
31782;SDS011;18351;47.560;9.708;2023-03-31T17:14:45;3.13;;;1.38;;
31782;SDS011;18351;47.560;9.708;2023-03-31T17:17:11;7.97;;;3.10;;
31782;SDS011;18351;47.560;9.708;2023-03-31T17:19:36;4.20;;;1.63;;
31782;SDS011;18351;47.560;9.708;2023-03-31T17:22:02;1.58;;;1.02;;
31782;SDS011;18351;47.560;9.708;2023-03-31T17:24:27;1.02;;;0.90;;
31782;SDS011;18351;47.560;9.708;2023-03-31T17:26:53;3.25;;;1.30;;
31782;SDS011;18351;47.560;9.708;2023-03-31T17:29:19;2.25;;;1.05;;
31782;SDS011;18351;47.560;9.708;2023-03-31T17:31:45;4.30;;;1.77;;
31782;SDS011;18351;47.560;9.708;2023-03-31T17:34:11;6.80;;;2.60;;
31782;SDS011;18351;47.560;9.708;2023-03-31T17:36:37;3.53;;;1.30;;
31782;SDS011;18351;47.560;9.708;2023-03-31T17:39:03;5.05;;;1.10;;
31782;SDS011;18351;47.560;9.708;2023-03-31T17:41:29;3.90;;;1.10;;
31782;SDS011;18351;47.560;9.708;2023-03-31T17:43:55;1.35;;;1.20;;
31782;SDS011;18351;47.560;9.708;2023-03-31T17:46:21;3.88;;;1.30;;
31782;SDS011;18351;47.560;9.708;2023-03-31T17:48:48;2.38;;;1.00;;
31782;SDS011;18351;47.560;9.708;2023-03-31T17:51:15;2.25;;;1.50;;
31782;SDS011;18351;47.560;9.708;2023-03-31T17:53:43;2.53;;;1.23;;
31782;SDS011;18351;47.560;9.708;2023-03-31T17:56:10;2.20;;;1.25;;
31782;SDS011;18351;47.560;9.708;2023-03-31T17:58:36;6.13;;;3.22;;
31782;SDS011;18351;47.560;9.708;2023-03-31T18:01:03;3.83;;;2.33;;
31782;SDS011;18351;47.560;9.708;2023-03-31T18:03:31;4.47;;;3.08;;
31782;SDS011;18351;47.560;9.708;2023-03-31T18:06:01;5.40;;;3.30;;
31782;SDS011;18351;47.560;9.708;2023-03-31T18:08:28;3.90;;;2.65;;
31782;SDS011;18351;47.560;9.708;2023-03-31T18:10:54;9.05;;;4.20;;
31782;SDS011;18351;47.560;9.708;2023-03-31T18:13:19;7.82;;;3.50;;
31782;SDS011;18351;47.560;9.708;2023-03-31T18:15:49;10.25;;;5.43;;
31782;SDS011;18351;47.560;9.708;2023-03-31T18:18:16;8.35;;;4.35;;